Veselaja Gorka, Russia
Current Conditions -  °F | °C
As of 2:30 AM on Friday 24 Oct 2014 (Local Time) from UHHH Reporting Station
Overcast Overcast  
Wind Chill: 40°   Ceiling: 10000
Heat Index: 46°   Visibility: 4mi
Dew Point: 34°   Wind: 16mph
Humidity: 62%   Direction: 250°WSW
Pressure: 29.77"   Gusts: 27mph
Location:  52.28°N, 135.8°E
Report Text: UHHH 231630Z 25007G12MPS 6000 OVC100 08/01 Q1008 NOSIG RMKQFE750/1000 23090060
Loading
Personal Weather Stations






























Interactive Weather Map
Tropical Storm Tracking
New forecast layout! Learn more

10-Day Weather Forecast

Advertisements
Track Severe Weather on mobile